Time;durP1;ratioP1;P1;durP2;ratioP2;P2;SDS_P1;SDS_P2;PMS_P1;PMS_P2;Temp;Humidity;BMP_temperature;BMP_pressure;BME280_temperature;BME280_humidity;BME280_pressure;Samples;Min_cycle;Max_cycle;Signal;HPM_P1;HPM_P2
2022/03/26 00:01:15;;;;;;;;;;;;;;;7.15;47.53;100750.53;3142979;28;20543;-65
2022/03/26 00:02:46;;;;;;;;;;;;;;;7.12;47.62;100746.25;3144862;28;19924;-65
2022/03/26 00:04:18;;;;;;;;;;;;;;;7.11;47.60;100738.50;3144991;28;20063;-64
2022/03/26 00:05:51;;;;;;;;;;;;;;;7.08;47.65;100742.00;3144534;28;19947;-65
2022/03/26 00:07:23;;;;;;;;;;;;;;;7.05;47.69;100734.28;3143667;28;19935;-64
2022/03/26 00:08:54;;;;;;;;;;;;;;;7.02;48.10;100735.19;3145046;28;19932;-64
2022/03/26 00:10:26;;;;;;;;;;;;;;;6.98;48.51;100736.13;3144724;28;19938;-65
2022/03/26 00:11:58;;;;;;;;;;;;;;;6.94;48.71;100731.84;3150201;28;20024;-65
2022/03/26 00:13:29;;;;;;;;;;;;;;;6.90;48.35;100730.19;3144968;28;19944;-65
2022/03/26 00:15:01;;;;;;;;;;;;;;;6.90;48.29;100734.53;3149320;28;19932;-65
2022/03/26 00:16:34;;;;;;;;;;;;;;;6.86;48.36;100728.50;3139495;28;20285;-65
2022/03/26 00:18:06;;;;;;;;;;;;;;;6.83;48.40;100729.44;3147014;28;20397;-65
2022/03/26 00:19:38;;;;;;;;;;;;;;;6.81;48.48;100730.34;3145977;28;19924;-65
2022/03/26 00:21:12;;;;;;;;;;;;;;;6.79;48.43;100727.75;3144937;28;19928;-65
2022/03/26 00:22:43;;;;;;;;;;;;;;;6.77;48.78;100724.34;3142264;28;19959;-65
2022/03/26 00:24:15;;;;;;;;;;;;;;;6.74;48.85;100729.53;3144518;28;19924;-65
2022/03/26 00:25:47;;;;;;;;;;;;;;;6.70;48.94;100727.91;3146779;28;20225;-65
2022/03/26 00:27:18;;;;;;;;;;;;;;;6.68;49.02;100729.63;3144384;28;19968;-65
2022/03/26 00:28:50;;;;;;;;;;;;;;;6.63;49.03;100723.69;3146373;28;19924;-65
2022/03/26 00:30:22;;;;;;;;;;;;;;;6.61;49.05;100730.63;3144254;28;20004;-65
2022/03/26 00:31:53;;;;;;;;;;;;;;;6.57;49.31;100729.81;3150727;28;20674;-65
2022/03/26 00:33:25;;;;;;;;;;;;;;;6.53;49.30;100730.72;3144682;28;20370;-67
2022/03/26 00:34:57;;;;;;;;;;;;;;;6.49;49.42;100733.38;3145849;28;19984;-65
2022/03/26 00:36:30;;;;;;;;;;;;;;;6.46;49.61;100736.00;3149157;28;19976;-66
2022/03/26 00:38:02;;;;;;;;;;;;;;;6.44;49.38;100737.75;3144362;28;19939;-66
2022/03/26 00:39:34;;;;;;;;;;;;;;;6.42;49.43;100732.59;3149312;28;20019;-65
2022/03/26 00:41:06;;;;;;;;;;;;;;;6.40;49.54;100736.94;3138526;28;19963;-65
2022/03/26 00:42:38;;;;;;;;;;;;;;;6.37;49.64;100740.41;3149036;28;19943;-65
2022/03/26 00:44:09;;;;;;;;;;;;;;;6.34;49.80;100732.69;3144554;28;19958;-65
2022/03/26 00:45:41;;;;;;;;;;;;;;;6.33;49.85;100738.75;3147668;28;20014;-66
2022/03/26 00:47:13;;;;;;;;;;;;;;;6.32;49.76;100736.19;3144569;28;19989;-66
2022/03/26 00:48:45;;;;;;;;;;;;;;;6.30;49.88;100732.75;3146970;28;19928;-66
2022/03/26 00:50:17;;;;;;;;;;;;;;;6.28;49.95;100737.94;3144501;28;20290;-66
2022/03/26 00:51:50;;;;;;;;;;;;;;;6.26;49.94;100738.84;3144255;28;19929;-66
2022/03/26 00:53:21;;;;;;;;;;;;;;;6.07;50.08;100714.94;3143663;28;19947;-66
2022/03/26 00:54:53;;;;;;;;;;;;;;;6.21;50.08;100738.91;3144590;28;19928;-66
2022/03/26 00:56:24;;;;;;;;;;;;;;;6.19;50.17;100742.38;3145232;28;19978;-66
2022/03/26 00:57:56;;;;;;;;;;;;;;;6.17;50.34;100747.56;3144479;28;19929;-66
2022/03/26 00:59:27;;;;;;;;;;;;;;;6.15;50.23;100752.78;3149938;28;19928;-66
2022/03/26 01:00:58;;;;;;;;;;;;;;;6.14;50.32;100751.03;3140210;28;20005;-66
2022/03/26 01:02:30;;;;;;;;;;;;;;;6.12;50.21;100750.22;3144360;28;20049;-66
2022/03/26 01:04:02;;;;;;;;;;;;;;;6.10;50.52;100754.56;3144639;28;19925;-66
2022/03/26 01:05:34;;;;;;;;;;;;;;;6.08;50.43;100750.25;3147385;28;19932;-66
2022/03/26 01:07:06;;;;;;;;;;;;;;;6.07;50.47;100751.16;3145432;28;19929;-66
2022/03/26 01:08:38;;;;;;;;;;;;;;;6.04;50.52;100749.44;3144608;28;19982;-66
2022/03/26 01:10:10;;;;;;;;;;;;;;;6.03;50.56;100758.06;3147503;28;19928;-66
2022/03/26 01:11:41;;;;;;;;;;;;;;;6.01;50.69;100756.41;3144380;28;20057;-66
2022/03/26 01:13:14;;;;;;;;;;;;;;;5.97;50.90;100755.53;3147195;28;19933;-66
2022/03/26 01:14:45;;;;;;;;;;;;;;;5.94;51.22;100755.56;3144443;28;19924;-66
2022/03/26 01:16:17;;;;;;;;;;;;;;;5.90;51.25;100753.88;3141729;28;20373;-66
2022/03/26 01:17:49;;;;;;;;;;;;;;;5.87;51.13;100754.75;3143978;28;19940;-66
2022/03/26 01:19:21;;;;;;;;;;;;;;;5.82;51.89;100761.69;3145820;28;20027;-66
2022/03/26 01:20:52;;;;;;;;;;;;;;;5.79;51.93;100763.47;3144136;28;19925;-66
2022/03/26 01:22:25;;;;;;;;;;;;;;;5.77;51.51;100763.50;3146166;28;19994;-66
2022/03/26 01:23:57;;;;;;;;;;;;;;;5.75;51.60;100761.81;3148248;28;19928;-66
2022/03/26 01:25:29;;;;;;;;;;;;;;;5.73;51.44;100761.81;3144453;28;19935;-65
2022/03/26 01:27:00;;;;;;;;;;;;;;;5.70;51.72;100762.69;3149408;28;19935;-66
2022/03/26 01:28:31;;;;;;;;;;;;;;;5.67;51.62;100767.88;3144606;28;20386;-66
2022/03/26 01:30:03;;;;;;;;;;;;;;;5.67;51.55;100762.72;3149626;28;19939;-66
2022/03/26 01:31:35;;;;;;;;;;;;;;;5.65;51.71;100767.06;3144355;28;20073;-64
2022/03/26 01:33:06;;;;;;;;;;;;;;;5.64;51.69;100765.31;3148463;28;19986;-64
2022/03/26 01:34:38;;;;;;;;;;;;;;;5.63;51.62;100766.22;3144429;28;19931;-66
2022/03/26 01:36:09;;;;;;;;;;;;;;;5.62;51.64;100769.66;3145437;28;19928;-63
2022/03/26 01:37:42;;;;;;;;;;;;;;;5.62;51.62;100768.78;3144356;28;19931;-65
2022/03/26 01:39:13;;;;;;;;;;;;;;;5.61;51.71;100767.09;3139541;28;20007;-66
2022/03/26 01:40:45;;;;;;;;;;;;;;;5.60;51.76;100770.56;3144142;28;19924;-65
2022/03/26 01:42:17;;;;;;;;;;;;;;;5.60;51.74;100778.31;3144259;28;19924;-66
2022/03/26 01:43:49;;;;;;;;;;;;;;;5.59;51.96;100776.56;3148035;28;19994;-66
2022/03/26 01:45:21;;;;;;;;;;;;;;;5.58;51.85;100780.03;3146739;28;19982;-65
2022/03/26 01:46:54;;;;;;;;;;;;;;;5.56;51.91;100774.91;3147210;28;20023;-66
2022/03/26 01:48:26;;;;;;;;;;;;;;;5.56;51.95;100776.59;3146192;28;19925;-66
2022/03/26 01:49:58;;;;;;;;;;;;;;;5.55;51.94;100777.47;3147671;28;19990;-65
2022/03/26 01:51:29;;;;;;;;;;;;;;;5.52;52.02;100773.19;3146687;28;19929;-65
2022/03/26 01:53:03;;;;;;;;;;;;;;;5.53;52.02;100774.94;3149421;28;19936;-66
2022/03/26 01:54:34;;;;;;;;;;;;;;;5.51;52.16;100776.66;3147803;28;19990;-65
2022/03/26 01:56:06;;;;;;;;;;;;;;;5.50;52.04;100771.50;3147486;28;20329;-64
2022/03/26 01:57:38;;;;;;;;;;;;;;;5.50;52.02;100779.25;3149535;28;19928;-64
2022/03/26 01:59:10;;;;;;;;;;;;;;;5.48;52.20;100774.94;3146452;28;19942;-64
2022/03/26 02:00:42;;;;;;;;;;;;;;;5.48;52.21;100774.94;3147689;28;20452;-64
2022/03/26 02:02:12;;;;;;;;;;;;;;;5.47;52.32;100785.28;3146528;28;20325;-64
2022/03/26 02:03:44;;;;;;;;;;;;;;;5.47;52.36;100782.69;3148749;28;19925;-65
2022/03/26 02:05:16;;;;;;;;;;;;;;;5.45;52.44;100784.47;3146102;28;20005;-66
2022/03/26 02:06:48;;;;;;;;;;;;;;;5.44;52.52;100778.44;3145819;28;19924;-66
2022/03/26 02:08:21;;;;;;;;;;;;;;;5.44;52.39;100787.91;3146321;28;19955;-66
2022/03/26 02:09:53;;;;;;;;;;;;;;;5.42;52.50;100782.75;3146475;28;19928;-66
2022/03/26 02:11:25;;;;;;;;;;;;;;;5.42;52.40;100787.06;3146281;28;20282;-66
2022/03/26 02:12:58;;;;;;;;;;;;;;;5.40;52.50;100789.66;3146297;28;20003;-66
2022/03/26 02:14:29;;;;;;;;;;;;;;;5.40;52.63;100793.97;3146656;28;19936;-66
2022/03/26 02:16:01;;;;;;;;;;;;;;;5.39;52.68;100792.25;3146462;28;19954;-66
2022/03/26 02:17:33;;;;;;;;;;;;;;;5.38;52.70;100800.88;3151141;28;19925;-64
2022/03/26 02:19:06;;;;;;;;;;;;;;;5.37;52.62;100794.00;3145416;28;19928;-64
2022/03/26 02:20:39;;;;;;;;;;;;;;;5.36;52.60;100800.91;3151167;28;19982;-66
2022/03/26 02:22:10;;;;;;;;;;;;;;;5.35;52.65;100796.56;3146049;28;19930;-64
2022/03/26 02:23:42;;;;;;;;;;;;;;;5.34;52.68;100796.59;3149569;28;19924;-67
2022/03/26 02:25:13;;;;;;;;;;;;;;;5.33;52.86;100797.47;3146275;28;19993;-66
2022/03/26 02:26:45;;;;;;;;;;;;;;;5.33;52.68;100802.66;3152628;28;20046;-66
2022/03/26 02:28:17;;;;;;;;;;;;;;;5.31;52.99;100797.47;3146025;28;19931;-66
2022/03/26 02:29:49;;;;;;;;;;;;;;;5.31;52.87;100801.78;3146083;28;19928;-64
2022/03/26 02:31:21;;;;;;;;;;;;;;;5.30;53.03;100798.34;3147581;28;19978;-63
2022/03/26 02:32:53;;;;;;;;;;;;;;;5.29;52.99;100800.94;3146185;28;20401;-64
2022/03/26 02:34:26;;;;;;;;;;;;;;;5.27;53.06;100808.72;3146445;28;19931;-64
2022/03/26 02:35:59;;;;;;;;;;;;;;;5.27;53.00;100805.28;3145552;28;19929;-64
2022/03/26 02:37:31;;;;;;;;;;;;;;;5.27;53.13;100807.88;3152332;28;19924;-65
2022/03/26 02:39:03;;;;;;;;;;;;;;;5.25;53.10;100805.28;3145959;28;19978;-64
2022/03/26 02:40:34;;;;;;;;;;;;;;;5.24;53.21;100811.31;3150282;28;19993;-64
2022/03/26 02:42:05;;;;;;;;;;;;;;;5.23;53.10;100807.88;3146498;28;19928;-64
2022/03/26 02:43:37;;;;;;;;;;;;;;;5.22;53.24;100803.56;3147173;28;19924;-65
2022/03/26 02:45:09;;;;;;;;;;;;;;;5.22;53.34;100811.31;3143222;28;19932;-65
2022/03/26 02:46:41;;;;;;;;;;;;;;;5.21;53.29;100808.75;3145905;28;19928;-65
2022/03/26 02:48:13;;;;;;;;;;;;;;;5.21;53.33;100813.94;3147527;28;19925;-65
2022/03/26 02:49:44;;;;;;;;;;;;;;;5.20;53.23;100822.53;3145968;28;19928;-65
2022/03/26 02:51:17;;;;;;;;;;;;;;;5.19;53.22;100820.81;3148738;28;20707;-65
2022/03/26 02:52:50;;;;;;;;;;;;;;;5.18;53.28;100816.53;3145410;28;20388;-65
2022/03/26 02:54:22;;;;;;;;;;;;;;;5.16;53.34;100811.34;3148826;28;19944;-65
2022/03/26 02:55:54;;;;;;;;;;;;;;;5.16;53.24;100815.66;3145833;28;19939;-65
2022/03/26 02:57:26;;;;;;;;;;;;;;;5.16;53.29;100813.09;3145600;28;19932;-65
2022/03/26 02:58:58;;;;;;;;;;;;;;;5.16;53.20;100826.00;3145590;28;20035;-65
2022/03/26 03:00:30;;;;;;;;;;;;;;;5.14;53.20;100810.50;3145562;28;19936;-65
2022/03/26 03:02:01;;;;;;;;;;;;;;;5.13;53.28;100819.13;3140205;28;19925;-65
2022/03/26 03:03:33;;;;;;;;;;;;;;;5.13;53.25;100818.28;3145914;28;19932;-65
2022/03/26 03:05:05;;;;;;;;;;;;;;;5.12;53.42;100821.72;3151243;28;20009;-65
2022/03/26 03:06:38;;;;;;;;;;;;;;;5.10;53.27;100816.56;3145802;28;19924;-65
2022/03/26 03:08:11;;;;;;;;;;;;;;;5.09;53.22;100820.03;3150771;28;19931;-64
2022/03/26 03:09:43;;;;;;;;;;;;;;;5.09;53.10;100819.16;3145490;28;20381;-65
2022/03/26 03:11:15;;;;;;;;;;;;;;;4.93;53.47;100803.75;3149729;28;19985;-65
2022/03/26 03:12:47;;;;;;;;;;;;;;;5.06;53.36;100821.75;3145873;28;19925;-65
2022/03/26 03:14:18;;;;;;;;;;;;;;;5.04;53.40;100816.59;3149025;28;20031;-65
2022/03/26 03:15:50;;;;;;;;;;;;;;;5.04;53.42;100821.78;3145367;28;19924;-65
2022/03/26 03:17:22;;;;;;;;;;;;;;;5.02;53.34;100819.19;3147167;28;19985;-65
2022/03/26 03:18:53;;;;;;;;;;;;;;;5.02;53.41;100819.19;3146667;28;20497;-64
2022/03/26 03:20:25;;;;;;;;;;;;;;;5.01;53.30;100816.63;3145078;28;20329;-65
2022/03/26 03:21:58;;;;;;;;;;;;;;;4.99;53.30;100821.78;3147344;28;19967;-65
2022/03/26 03:23:30;;;;;;;;;;;;;;;4.98;53.41;100821.81;3146445;28;20320;-65
2022/03/26 03:25:01;;;;;;;;;;;;;;;4.95;53.47;100814.94;3146535;28;19962;-65
2022/03/26 03:26:33;;;;;;;;;;;;;;;4.94;53.53;100818.41;3145508;28;19924;-65
2022/03/26 03:28:05;;;;;;;;;;;;;;;4.93;53.52;100819.25;3147930;28;19928;-65
2022/03/26 03:29:36;;;;;;;;;;;;;;;4.93;53.68;100820.97;3145345;28;19954;-65
2022/03/26 03:31:08;;;;;;;;;;;;;;;4.92;53.64;100816.69;3145392;28;19935;-65
2022/03/26 03:32:40;;;;;;;;;;;;;;;4.90;53.66;100818.41;3145435;28;20409;-65
2022/03/26 03:34:12;;;;;;;;;;;;;;;4.90;53.76;100818.41;3145596;28;19978;-65
2022/03/26 03:35:44;;;;;;;;;;;;;;;4.87;53.60;100819.28;3149101;28;20425;-65
2022/03/26 03:37:17;;;;;;;;;;;;;;;4.86;53.86;100815.00;3145379;28;19929;-65
2022/03/26 03:38:49;;;;;;;;;;;;;;;4.86;53.89;100819.31;3146690;28;20389;-66
2022/03/26 03:40:21;;;;;;;;;;;;;;;4.85;53.96;100817.56;3145493;28;20015;-67
2022/03/26 03:41:52;;;;;;;;;;;;;;;4.84;53.84;100823.59;3148170;28;19928;-67
2022/03/26 03:43:24;;;;;;;;;;;;;;;4.83;53.89;100820.16;3145216;28;19990;-67
2022/03/26 03:44:55;;;;;;;;;;;;;;;4.82;53.93;100815.84;3145365;28;19928;-66
2022/03/26 03:46:27;;;;;;;;;;;;;;;4.82;54.00;100815.00;3145426;28;19932;-66
2022/03/26 03:47:59;;;;;;;;;;;;;;;4.79;53.89;100816.75;3146167;28;19989;-65
2022/03/26 03:49:31;;;;;;;;;;;;;;;4.78;53.98;100820.19;3145075;28;19978;-64
2022/03/26 03:51:03;;;;;;;;;;;;;;;4.77;54.03;100823.63;3147526;28;20464;-65
2022/03/26 03:52:35;;;;;;;;;;;;;;;4.76;53.93;100815.88;3145299;28;20447;-65
2022/03/26 03:54:08;;;;;;;;;;;;;;;4.74;54.03;100815.91;3145063;28;19924;-65
2022/03/26 03:55:40;;;;;;;;;;;;;;;4.72;54.25;100824.53;3150661;28;19935;-64
2022/03/26 03:57:11;;;;;;;;;;;;;;;4.70;54.17;100821.09;3145079;28;19932;-65
2022/03/26 03:58:43;;;;;;;;;;;;;;;4.68;54.14;100823.69;3146749;28;20031;-65
2022/03/26 04:00:15;;;;;;;;;;;;;;;4.68;54.19;100822.84;3144899;28;20390;-65
2022/03/26 04:01:47;;;;;;;;;;;;;;;4.67;54.23;100819.38;3143818;28;19973;-64
2022/03/26 04:03:18;;;;;;;;;;;;;;;4.67;54.26;100831.41;3145091;28;19928;-64
2022/03/26 04:04:50;;;;;;;;;;;;;;;4.66;54.35;100829.72;3145278;28;19939;-64
2022/03/26 04:06:22;;;;;;;;;;;;;;;4.65;54.48;100825.44;3144722;28;19933;-66
2022/03/26 04:07:55;;;;;;;;;;;;;;;4.62;54.37;100826.28;3144791;28;19924;-65
2022/03/26 04:09:26;;;;;;;;;;;;;;;4.63;54.49;100834.88;3146279;28;19928;-65
2022/03/26 04:10:58;;;;;;;;;;;;;;;4.62;54.40;100828.88;3144740;28;19924;-65
2022/03/26 04:12:30;;;;;;;;;;;;;;;4.60;54.50;100832.31;3146594;28;20359;-65
2022/03/26 04:14:01;;;;;;;;;;;;;;;4.60;54.46;100834.91;3144605;28;19925;-66
2022/03/26 04:15:33;;;;;;;;;;;;;;;4.60;54.54;100834.91;3146138;28;19925;-65
2022/03/26 04:17:05;;;;;;;;;;;;;;;4.59;54.68;100834.06;3144176;28;19982;-65
2022/03/26 04:18:36;;;;;;;;;;;;;;;4.59;54.73;100835.78;3148295;28;19981;-65
2022/03/26 04:20:10;;;;;;;;;;;;;;;4.58;54.72;100837.47;3147176;28;20019;-65
2022/03/26 04:21:41;;;;;;;;;;;;;;;4.59;54.75;100838.34;3151616;28;19928;-65
2022/03/26 04:23:14;;;;;;;;;;;;;;;4.59;54.77;100838.34;3144964;28;19935;-65
2022/03/26 04:24:46;;;;;;;;;;;;;;;4.57;54.84;100831.47;3144738;28;20445;-65
2022/03/26 04:26:17;;;;;;;;;;;;;;;4.59;54.79;100838.34;3148963;28;19990;-65
2022/03/26 04:27:49;;;;;;;;;;;;;;;4.61;54.95;100841.78;3144691;28;20041;-65
2022/03/26 04:29:21;;;;;;;;;;;;;;;4.62;54.87;100836.63;3148242;28;19928;-65
2022/03/26 04:30:53;;;;;;;;;;;;;;;4.44;54.91;100803.16;3144753;28;19928;-65
2022/03/26 04:32:24;;;;;;;;;;;;;;;4.67;54.79;100844.31;3147547;28;19932;-65
2022/03/26 04:34:01;;;;;;;;;;;;;;;4.70;54.78;100844.31;3144772;28;19928;-65
2022/03/26 04:35:33;;;;;;;;;;;;;;;4.72;54.90;100843.44;3146826;28;20004;-65
2022/03/26 04:37:05;;;;;;;;;;;;;;;4.75;54.74;100848.59;3144486;28;19930;-64
2022/03/26 04:38:38;;;;;;;;;;;;;;;4.78;54.61;100848.56;3146174;28;19931;-65
2022/03/26 04:40:11;;;;;;;;;;;;;;;4.82;54.67;100851.97;3144827;28;19928;-65
2022/03/26 04:41:43;;;;;;;;;;;;;;;4.86;54.64;100852.84;3138060;28;19947;-64
2022/03/26 04:43:14;;;;;;;;;;;;;;;4.91;54.65;100856.25;3150947;28;20027;-65
2022/03/26 04:44:46;;;;;;;;;;;;;;;4.93;54.63;100857.09;3144754;28;19924;-64
2022/03/26 04:46:18;;;;;;;;;;;;;;;4.95;54.58;100853.66;3149437;28;19924;-65
2022/03/26 04:47:49;;;;;;;;;;;;;;;4.97;54.50;100864.84;3145647;28;20364;-65
2022/03/26 04:49:20;;;;;;;;;;;;;;;5.02;54.52;100875.13;3153410;28;19924;-65
2022/03/26 04:50:52;;;;;;;;;;;;;;;5.05;54.34;100869.94;3144897;28;20007;-64
2022/03/26 04:52:23;;;;;;;;;;;;;;;5.10;54.27;100875.94;3144623;28;19931;-65
2022/03/26 04:53:55;;;;;;;;;;;;;;;5.16;54.22;100877.66;3144528;28;19928;-65
2022/03/26 04:55:27;;;;;;;;;;;;;;;5.17;54.28;100875.03;3145134;28;20366;-65
2022/03/26 04:56:59;;;;;;;;;;;;;;;5.21;54.13;100881.91;3147049;28;19985;-64
2022/03/26 04:58:29;;;;;;;;;;;;;;;5.23;54.13;100884.47;3145023;28;20011;-65
2022/03/26 05:00:01;;;;;;;;;;;;;;;5.25;53.99;100893.09;3146592;28;19925;-65
2022/03/26 05:01:33;;;;;;;;;;;;;;;5.27;53.80;100883.63;3142127;28;19924;-65
2022/03/26 05:03:04;;;;;;;;;;;;;;;5.31;53.65;100892.19;3146253;28;19982;-65
2022/03/26 05:04:36;;;;;;;;;;;;;;;5.32;53.52;100889.59;3144328;28;19994;-65
2022/03/26 05:06:07;;;;;;;;;;;;;;;5.33;53.21;100895.63;3145293;28;20001;-65
2022/03/26 05:07:48;;;;;;;;;;;;;;;5.33;53.05;100895.63;3144614;28;19928;-65
2022/03/26 05:09:21;;;;;;;;;;;;;;;5.30;53.08;100895.66;3147674;28;20301;-65
2022/03/26 05:10:53;;;;;;;;;;;;;;;5.28;53.04;100899.97;3147159;28;19931;-64
2022/03/26 05:12:24;;;;;;;;;;;;;;;5.18;53.27;100900.00;3145151;28;19971;-65
2022/03/26 05:13:57;;;;;;;;;;;;;;;5.12;53.25;100896.63;3145230;28;19929;-65
2022/03/26 05:15:29;;;;;;;;;;;;;;;5.12;53.10;100904.38;3144601;28;20522;-65
2022/03/26 05:17:00;;;;;;;;;;;;;;;5.11;53.03;100903.47;3146401;28;20011;-65
2022/03/26 05:18:32;;;;;;;;;;;;;;;5.07;53.15;100906.09;3140516;28;20398;-65
2022/03/26 05:20:04;;;;;;;;;;;;;;;5.07;52.96;100906.09;3150443;28;20005;-64
2022/03/26 05:21:37;;;;;;;;;;;;;;;5.09;52.94;100904.34;3146705;28;19998;-64
2022/03/26 05:23:09;;;;;;;;;;;;;;;5.12;52.90;100906.94;3149606;28;20413;-64
2022/03/26 05:24:42;;;;;;;;;;;;;;;5.16;52.82;100912.06;3147007;28;19977;-64
2022/03/26 05:26:14;;;;;;;;;;;;;;;5.20;52.79;100911.16;3148762;28;19928;-64
2022/03/26 05:27:46;;;;;;;;;;;;;;;5.25;52.60;100909.44;3146698;28;19947;-65
2022/03/26 05:29:17;;;;;;;;;;;;;;;5.28;52.60;100916.31;3147521;28;19928;-64
2022/03/26 05:30:49;;;;;;;;;;;;;;;5.32;52.67;100915.41;3141892;28;19934;-65
2022/03/26 05:32:21;;;;;;;;;;;;;;;5.34;52.60;100912.84;3146958;28;20313;-65
2022/03/26 05:33:52;;;;;;;;;;;;;;;5.40;52.58;100916.22;3148200;28;19978;-65
2022/03/26 05:35:25;;;;;;;;;;;;;;;5.46;52.88;100912.75;3146713;28;20350;-65
2022/03/26 05:36:56;;;;;;;;;;;;;;;5.56;52.44;100917.00;3148363;28;19957;-65
2022/03/26 05:38:28;;;;;;;;;;;;;;;5.67;52.24;100907.44;3147175;28;19932;-65
2022/03/26 05:40:01;;;;;;;;;;;;;;;5.80;52.00;100915.13;3147509;28;19931;-65
2022/03/26 05:41:33;;;;;;;;;;;;;;;5.77;51.84;100892.72;3146484;28;20405;-65
2022/03/26 05:43:05;;;;;;;;;;;;;;;6.02;52.00;100916.69;3149227;28;19928;-65
2022/03/26 05:44:37;;;;;;;;;;;;;;;6.08;51.99;100920.94;3147341;28;20493;-65
2022/03/26 05:46:09;;;;;;;;;;;;;;;6.16;51.81;100926.91;3150054;28;19935;-65
2022/03/26 05:47:40;;;;;;;;;;;;;;;6.21;51.85;100924.25;3146341;28;20666;-65
2022/03/26 05:49:11;;;;;;;;;;;;;;;6.24;51.68;100924.22;3146639;28;19924;-65
2022/03/26 05:50:44;;;;;;;;;;;;;;;6.27;51.87;100921.63;3146359;28;19947;-65
2022/03/26 05:52:16;;;;;;;;;;;;;;;6.30;52.15;100925.06;3146265;28;19982;-65
2022/03/26 05:53:49;;;;;;;;;;;;;;;6.32;52.10;100923.28;3147755;28;19982;-65
2022/03/26 05:55:22;;;;;;;;;;;;;;;6.39;51.89;100924.09;3148924;28;19935;-65
2022/03/26 05:56:54;;;;;;;;;;;;;;;6.48;51.97;100923.16;3149555;28;19943;-64
2022/03/26 05:58:26;;;;;;;;;;;;;;;6.55;52.13;100928.25;3150387;28;19939;-66
2022/03/26 05:59:57;;;;;;;;;;;;;;;6.70;51.69;100928.94;3147541;28;19928;-64
2022/03/26 06:01:29;;;;;;;;;;;;;;;6.85;51.51;100923.59;3150023;28;20417;-65
2022/03/26 06:03:00;;;;;;;;;;;;;;;6.99;51.56;100924.28;3150171;28;19929;-65
2022/03/26 06:04:33;;;;;;;;;;;;;;;7.25;51.34;100925.69;3150213;28;20009;-66
2022/03/26 06:06:04;;;;;;;;;;;;;;;7.89;51.00;100919.53;3151349;28;19951;-65
2022/03/26 06:07:36;;;;;;;;;;;;;;;9.01;50.12;100919.25;3150424;28;19924;-66
2022/03/26 06:09:08;;;;;;;;;;;;;;;10.35;48.75;100924.78;3152128;28;19924;-66
2022/03/26 06:10:41;;;;;;;;;;;;;;;11.64;46.87;100928.91;3146274;28;19932;-66
2022/03/26 06:12:12;;;;;;;;;;;;;;;12.93;44.95;100915.78;3141621;28;19928;-66
2022/03/26 06:13:46;;;;;;;;;;;;;;;14.21;43.46;100923.84;3140651;28;19983;-65
2022/03/26 06:15:18;;;;;;;;;;;;;;;15.43;41.50;100923.63;3139365;28;19928;-67
2022/03/26 06:16:50;;;;;;;;;;;;;;;16.59;39.53;100917.00;3138069;28;20454;-66
2022/03/26 06:18:22;;;;;;;;;;;;;;;17.69;38.07;100914.56;3140906;28;19964;-65
2022/03/26 06:19:54;;;;;;;;;;;;;;;18.68;35.83;100921.03;3142847;28;20008;-64
2022/03/26 06:21:27;;;;;;;;;;;;;;;19.59;34.40;100913.56;3140328;28;20397;-65
2022/03/26 06:22:59;;;;;;;;;;;;;;;20.54;32.95;100917.81;3137817;28;19928;-67
2022/03/26 06:24:31;;;;;;;;;;;;;;;21.39;31.77;100923.31;3139877;28;20352;-67
2022/03/26 06:26:04;;;;;;;;;;;;;;;22.20;30.56;100916.44;3138940;28;19947;-67
2022/03/26 06:27:34;;;;;;;;;;;;;;;23.02;29.61;100925.13;3140143;28;19928;-66
2022/03/26 06:29:06;;;;;;;;;;;;;;;23.74;28.33;100921.09;3137951;28;19929;-65
2022/03/26 06:30:38;;;;;;;;;;;;;;;24.44;27.39;100933.00;3141170;28;19928;-66
2022/03/26 06:32:10;;;;;;;;;;;;;;;25.18;26.45;100914.13;3141830;28;19928;-66
2022/03/26 06:33:42;;;;;;;;;;;;;;;25.80;25.38;100928.91;3140968;28;19929;-65
2022/03/26 06:35:14;;;;;;;;;;;;;;;26.22;24.11;100930.47;3138153;28;19933;-65
2022/03/26 06:36:46;;;;;;;;;;;;;;;26.59;23.66;100927.88;3141407;28;20256;-67
2022/03/26 06:38:17;;;;;;;;;;;;;;;26.80;22.86;100925.00;3139577;28;19929;-68
2022/03/26 06:39:49;;;;;;;;;;;;;;;27.12;22.54;100923.69;3138403;28;20023;-68
2022/03/26 06:41:22;;;;;;;;;;;;;;;27.43;21.86;100930.44;3139812;28;19935;-68
2022/03/26 06:42:55;;;;;;;;;;;;;;;27.60;21.10;100923.41;3139339;28;19935;-68
2022/03/26 06:44:26;;;;;;;;;;;;;;;27.73;20.90;100925.69;3136976;28;19932;-66
2022/03/26 06:45:58;;;;;;;;;;;;;;;27.93;20.76;100925.59;3136687;28;19940;-66
2022/03/26 06:47:31;;;;;;;;;;;;;;;28.17;20.68;100936.47;3138768;28;19939;-66
2022/03/26 06:49:03;;;;;;;;;;;;;;;28.43;20.15;100927.66;3139646;28;20211;-67
2022/03/26 06:50:34;;;;;;;;;;;;;;;28.70;19.76;100940.88;3140173;28;19932;-68
2022/03/26 06:52:07;;;;;;;;;;;;;;;29.03;19.76;100935.69;3139835;28;19932;-69
2022/03/26 06:53:39;;;;;;;;;;;;;;;29.35;19.51;100942.16;3138398;28;20027;-68
2022/03/26 06:55:10;;;;;;;;;;;;;;;29.55;19.10;100932.81;3135936;28;20126;-69
2022/03/26 06:56:44;;;;;;;;;;;;;;;29.76;18.46;100932.34;3138988;28;19995;-69
2022/03/26 06:58:16;;;;;;;;;;;;;;;29.85;18.34;100943.94;3138851;28;19990;-66
2022/03/26 06:59:47;;;;;;;;;;;;;;;29.93;18.41;100939.41;3133105;28;19932;-67
2022/03/26 07:01:19;;;;;;;;;;;;;;;30.00;18.44;100936.06;3136552;28;20233;-66
2022/03/26 07:02:51;;;;;;;;;;;;;;;30.16;17.70;100934.19;3139414;28;20056;-66
2022/03/26 07:04:23;;;;;;;;;;;;;;;30.41;18.17;100936.88;3138758;28;20337;-66
2022/03/26 07:05:54;;;;;;;;;;;;;;;30.59;17.47;100937.50;3136239;28;20409;-66
2022/03/26 07:07:26;;;;;;;;;;;;;;;30.74;17.35;100934.09;3138358;28;19939;-65
2022/03/26 07:09:00;;;;;;;;;;;;;;;31.03;17.33;100936.22;3138885;28;19961;-65
2022/03/26 07:10:32;;;;;;;;;;;;;;;31.38;16.84;100937.53;3139059;28;19929;-65
2022/03/26 07:12:05;;;;;;;;;;;;;;;31.68;16.75;100937.66;3138017;28;19928;-65
2022/03/26 07:13:40;;;;;;;;;;;;;;;31.96;16.47;100938.00;3141998;28;19924;-65
2022/03/26 07:15:12;;;;;;;;;;;;;;;32.18;16.34;100933.56;3136296;28;19967;-66
2022/03/26 07:16:43;;;;;;;;;;;;;;;32.32;16.10;100943.53;3135465;28;19982;-66
2022/03/26 07:18:16;;;;;;;;;;;;;;;32.53;15.86;100940.16;3129938;28;19974;-69
2022/03/26 07:19:47;;;;;;;;;;;;;;;32.34;15.70;100946.91;3130041;28;19928;-67
2022/03/26 07:21:19;;;;;;;;;;;;;;;31.66;15.89;100947.81;3137653;28;19934;-67
2022/03/26 07:22:51;;;;;;;;;;;;;;;31.14;16.35;100945.72;3135586;28;20165;-67
2022/03/26 07:24:23;;;;;;;;;;;;;;;30.82;16.86;100940.31;3140702;28;19998;-67
2022/03/26 07:25:55;;;;;;;;;;;;;;;30.97;16.39;100940.44;3135581;28;19932;-68
2022/03/26 07:27:31;;;;;;;;;;;;;;;30.98;16.31;100939.41;3136622;28;19985;-66
2022/03/26 07:29:03;;;;;;;;;;;;;;;30.82;16.42;100943.00;3135637;28;20031;-66
2022/03/26 07:30:36;;;;;;;;;;;;;;;30.33;16.38;100921.59;3138396;28;19939;-66
2022/03/26 07:32:08;;;;;;;;;;;;;;;30.12;16.95;100932.84;3135939;28;20053;-69
2022/03/26 07:33:40;;;;;;;;;;;;;;;29.73;17.18;100943.44;3133435;28;20434;-68
2022/03/26 07:35:12;;;;;;;;;;;;;;;28.91;17.18;100940.47;3136653;28;19928;-68
2022/03/26 07:36:47;;;;;;;;;;;;;;;27.92;17.80;100947.97;3135992;28;19928;-67
2022/03/26 07:38:21;;;;;;;;;;;;;;;26.72;18.80;100951.59;3136709;28;20389;-66
2022/03/26 07:39:53;;;;;;;;;;;;;;;26.31;19.47;100948.28;3135837;28;20340;-67
2022/03/26 07:41:27;;;;;;;;;;;;;;;25.99;19.47;100948.59;3141536;28;20062;-67
2022/03/26 07:43:02;;;;;;;;;;;;;;;25.61;20.09;100948.41;3140295;28;20043;-67
2022/03/26 07:44:34;;;;;;;;;;;;;;;25.36;20.30;100947.13;3141748;28;20258;-69
2022/03/26 07:46:07;;;;;;;;;;;;;;;24.96;20.64;100955.09;3136455;28;19932;-70
2022/03/26 07:47:39;;;;;;;;;;;;;;;24.51;20.86;100958.09;3140042;28;19928;-71
2022/03/26 07:49:10;;;;;;;;;;;;;;;24.29;21.23;100956.41;3135866;28;20360;-74
2022/03/26 07:50:43;;;;;;;;;;;;;;;24.05;21.35;100951.34;3137113;28;19932;-74
2022/03/26 07:52:15;;;;;;;;;;;;;;;23.88;21.59;100949.22;3136986;28;19963;-74
2022/03/26 07:53:47;;;;;;;;;;;;;;;23.72;21.58;100950.50;3135604;28;20457;-75
2022/03/26 07:55:19;;;;;;;;;;;;;;;23.66;21.76;100950.09;3137306;28;20416;-75
2022/03/26 07:56:51;;;;;;;;;;;;;;;23.53;21.93;100956.44;3134217;28;20031;-75
2022/03/26 07:58:25;;;;;;;;;;;;;;;23.15;21.96;100924.97;3136871;28;19982;-73